createdAt,value
2018-07-07T00:00:18.190Z,60336.91
2018-07-07T00:02:46.382Z,60314.56
2018-07-07T00:05:14.560Z,60309.48
2018-07-07T00:07:43.050Z,60304.40
2018-07-07T00:10:12.243Z,60320.66
2018-07-07T00:12:40.963Z,60328.79
2018-07-07T00:15:13.762Z,60313.54
2018-07-07T00:17:42.297Z,60309.48
2018-07-07T00:20:10.494Z,60320.66
2018-07-07T00:22:38.701Z,60311.51
2018-07-07T00:25:11.130Z,60340.98
2018-07-07T00:27:39.430Z,60342.00
2018-07-07T00:30:07.730Z,60319.64
2018-07-07T00:32:36.042Z,60327.77
2018-07-07T00:35:04.246Z,60348.09
2018-07-07T00:37:32.406Z,60322.69
2018-07-07T00:40:00.582Z,60338.95
2018-07-07T00:42:28.754Z,60340.98
2018-07-07T00:44:56.942Z,60342.00
2018-07-07T00:47:25.130Z,60349.11
2018-07-07T00:49:53.307Z,60329.80
2018-07-07T00:52:21.478Z,60342.00
2018-07-07T00:54:49.674Z,60350.12
2018-07-07T00:57:17.834Z,60332.85
2018-07-07T00:59:46.021Z,60329.80
2018-07-07T01:02:21.435Z,60335.90
2018-07-07T01:04:51.347Z,60346.06
2018-07-07T01:07:20.225Z,60345.04
2018-07-07T01:09:48.422Z,60326.75
2018-07-07T01:12:16.683Z,60314.56
2018-07-07T01:14:44.926Z,60344.03
2018-07-07T01:17:13.119Z,60339.96
2018-07-07T01:19:41.351Z,60329.80
2018-07-07T01:22:11.635Z,60313.54
2018-07-07T01:24:40.207Z,60329.80
2018-07-07T01:27:08.649Z,60339.96
2018-07-07T01:29:36.851Z,60330.82
2018-07-07T01:32:05.043Z,60334.88
2018-07-07T01:34:33.229Z,60336.91
2018-07-07T01:37:01.403Z,60317.61
2018-07-07T01:39:29.601Z,60338.95
2018-07-07T01:41:57.775Z,60318.62
2018-07-07T01:44:25.956Z,60323.71
2018-07-07T01:46:54.142Z,60380.61
2018-07-07T01:49:22.318Z,60340.98
2018-07-07T01:51:50.498Z,60338.95
2018-07-07T01:54:18.687Z,60348.09
2018-07-07T01:56:46.871Z,60321.67
2018-07-07T01:59:15.058Z,60328.79
2018-07-07T02:01:43.246Z,60320.66
2018-07-07T02:04:11.422Z,60327.77
2018-07-07T02:06:39.594Z,60312.53
2018-07-07T02:09:07.775Z,60339.96
2018-07-07T02:11:36.459Z,60311.51
2018-07-07T02:14:04.623Z,60348.09
2018-07-07T02:16:32.814Z,60324.72
2018-07-07T02:19:00.991Z,60339.96
2018-07-07T02:21:29.166Z,60337.93
2018-07-07T02:23:57.337Z,60342.00
2018-07-07T02:26:25.506Z,60347.08
2018-07-07T02:28:53.678Z,60313.54
2018-07-07T02:31:21.838Z,60347.08
2018-07-07T02:33:50.015Z,60323.71
2018-07-07T02:36:18.186Z,60343.01
2018-07-07T02:38:46.358Z,60338.95
2018-07-07T02:41:14.639Z,60342.00
2018-07-07T02:43:42.807Z,60325.74
2018-07-07T02:46:10.986Z,60345.04
2018-07-07T02:48:39.211Z,60336.91
2018-07-07T02:51:07.438Z,60317.61
2018-07-07T02:53:35.622Z,60333.87
2018-07-07T02:56:03.798Z,60332.85
2018-07-07T02:58:31.955Z,60332.85
2018-07-07T03:01:00.173Z,60308.46
2018-07-07T03:03:28.318Z,60352.16
2018-07-07T03:05:56.583Z,60313.54
2018-07-07T03:08:24.776Z,60334.88
2018-07-07T03:10:53.038Z,60338.95
2018-07-07T03:13:21.519Z,60319.64
2018-07-07T03:15:49.700Z,60325.74
2018-07-07T03:18:17.892Z,60356.22
2018-07-07T03:20:46.079Z,60340.98
2018-07-07T03:23:14.280Z,60320.66
2018-07-07T03:25:42.460Z,60313.54
2018-07-07T03:28:10.650Z,60322.69
2018-07-07T03:30:38.834Z,60346.06
2018-07-07T03:33:07.007Z,60333.87
2018-07-07T03:35:35.222Z,60333.87
2018-07-07T03:38:03.408Z,60338.95
2018-07-07T03:40:31.554Z,60349.11
2018-07-07T03:42:59.719Z,60347.08
2018-07-07T03:45:27.910Z,60348.09
2018-07-07T03:47:56.079Z,60330.82
2018-07-07T03:50:24.250Z,60326.75
2018-07-07T03:52:52.602Z,60336.91
2018-07-07T03:55:20.774Z,60321.67
2018-07-07T03:57:48.931Z,60325.74
2018-07-07T04:00:17.107Z,60330.82
2018-07-07T04:02:45.276Z,60310.50
2018-07-07T04:05:13.442Z,60318.62
2018-07-07T04:07:41.623Z,60317.61
2018-07-07T04:10:09.811Z,60306.43
2018-07-07T04:12:37.978Z,60330.82
2018-07-07T04:15:06.177Z,60328.79
2018-07-07T04:17:34.346Z,60320.66
2018-07-07T04:20:02.533Z,60330.82
2018-07-07T04:22:30.815Z,60340.98
2018-07-07T04:24:59.006Z,60319.64
2018-07-07T04:27:27.212Z,60314.56
2018-07-07T04:29:55.383Z,60313.54
2018-07-07T04:32:23.547Z,60350.12
2018-07-07T04:34:51.710Z,60337.93
2018-07-07T04:37:19.883Z,60332.85
2018-07-07T04:39:48.045Z,60330.82
2018-07-07T04:42:16.202Z,60317.61
2018-07-07T04:44:44.378Z,60330.82
2018-07-07T04:47:12.539Z,60356.22
2018-07-07T04:49:40.719Z,60349.11
2018-07-07T04:52:08.886Z,60335.90
2018-07-07T04:54:37.046Z,60299.32
2018-07-07T04:57:05.224Z,60320.66
2018-07-07T04:59:33.397Z,60323.71
2018-07-07T05:02:02.024Z,60309.48
2018-07-07T05:04:30.308Z,60298.30
2018-07-07T05:06:58.607Z,60317.61
2018-07-07T05:09:26.795Z,60306.43
2018-07-07T05:11:55.207Z,60315.57
2018-07-07T05:14:23.379Z,60312.53
2018-07-07T05:16:51.722Z,60310.50
2018-07-07T05:19:19.998Z,60324.72
2018-07-07T05:21:48.328Z,60316.59
2018-07-07T05:24:16.687Z,60325.74
2018-07-07T05:26:44.928Z,60335.90
2018-07-07T05:29:13.479Z,60322.69
2018-07-07T05:31:42.030Z,60315.57
2018-07-07T05:34:10.823Z,60309.48
2018-07-07T05:36:39.351Z,60299.32
2018-07-07T05:39:08.114Z,60306.43
2018-07-07T05:41:36.679Z,60312.53
2018-07-07T05:44:04.889Z,60310.50
2018-07-07T05:46:33.266Z,60318.62
2018-07-07T05:49:01.615Z,60307.45
2018-07-07T05:51:29.822Z,60312.53
2018-07-07T05:53:58.096Z,60306.43
2018-07-07T05:56:26.286Z,60303.38
2018-07-07T05:58:54.719Z,60310.50
2018-07-07T06:01:23.103Z,60297.29
2018-07-07T06:03:51.292Z,60298.30
2018-07-07T06:06:19.498Z,60316.59
2018-07-07T06:08:47.674Z,60291.19
2018-07-07T06:11:15.838Z,60296.27
2018-07-07T06:13:44.039Z,60296.27
2018-07-07T06:16:12.202Z,60291.19
2018-07-07T06:18:40.386Z,60295.25
2018-07-07T06:21:08.567Z,60318.62
2018-07-07T06:23:36.755Z,60304.40
2018-07-07T06:26:04.951Z,60310.50
2018-07-07T06:28:33.118Z,60321.67
2018-07-07T06:31:01.287Z,60289.16
2018-07-07T06:33:29.446Z,60276.96
2018-07-07T06:35:57.742Z,60310.50
2018-07-07T06:38:25.910Z,60298.30
2018-07-07T06:40:54.083Z,60263.75
2018-07-07T06:43:22.239Z,60301.35
2018-07-07T06:45:50.427Z,60286.11
2018-07-07T06:48:18.606Z,60285.09
2018-07-07T06:50:46.770Z,60299.32
2018-07-07T06:53:14.950Z,60297.29
2018-07-07T06:55:44.430Z,60291.19
2018-07-07T06:58:12.620Z,60290.17
2018-07-07T07:00:40.806Z,60282.04
2018-07-07T07:03:08.963Z,60288.14
2018-07-07T07:05:37.179Z,60294.24
2018-07-07T07:08:05.391Z,60276.96
2018-07-07T07:10:33.578Z,60299.32
2018-07-07T07:13:01.735Z,60307.45
2018-07-07T07:15:29.911Z,60312.53
2018-07-07T07:17:58.442Z,60276.96
2018-07-07T07:20:26.662Z,60300.34
2018-07-07T07:22:55.103Z,60295.25
2018-07-07T07:25:23.390Z,60289.16
2018-07-07T07:27:51.578Z,60292.21
2018-07-07T07:30:20.414Z,60288.14
2018-07-07T07:32:48.619Z,60303.38
2018-07-07T07:35:16.878Z,60302.37
2018-07-07T07:37:45.035Z,60295.25
2018-07-07T07:40:13.194Z,60290.17
2018-07-07T07:42:41.346Z,60305.41
2018-07-07T07:45:09.528Z,60271.88
2018-07-07T07:47:37.730Z,60299.32
2018-07-07T07:50:06.082Z,60287.12
2018-07-07T07:52:34.290Z,60295.25
2018-07-07T07:55:02.463Z,60269.85
2018-07-07T07:57:30.662Z,60291.19
2018-07-07T07:59:59.663Z,60294.24
2018-07-07T08:02:28.164Z,60301.35
2018-07-07T08:04:57.512Z,60283.06
2018-07-07T08:07:25.645Z,60286.11
2018-07-07T08:09:53.905Z,60272.90
2018-07-07T08:12:22.156Z,60295.25
2018-07-07T08:14:50.331Z,60254.61
2018-07-07T08:17:18.547Z,60291.19
2018-07-07T08:19:46.774Z,60254.61
2018-07-07T08:22:14.967Z,60268.83
2018-07-07T08:24:43.262Z,60259.69
2018-07-07T08:27:11.931Z,60266.80
2018-07-07T08:29:40.144Z,60266.80
2018-07-07T08:32:08.370Z,60275.95
2018-07-07T08:34:36.626Z,60252.57
2018-07-07T08:37:05.126Z,60265.79
2018-07-07T08:39:33.326Z,60254.61
2018-07-07T08:42:01.994Z,60242.41
2018-07-07T08:44:30.033Z,60287.12
2018-07-07T08:46:58.301Z,60261.72
2018-07-07T08:49:26.850Z,60271.88
2018-07-07T08:51:55.054Z,60255.63
2018-07-07T08:54:23.298Z,60244.45
2018-07-07T08:56:51.515Z,60259.69
2018-07-07T08:59:19.871Z,60256.64
2018-07-07T09:01:48.138Z,60258.67
2018-07-07T09:04:16.339Z,60246.48
2018-07-07T09:06:44.566Z,60260.71
2018-07-07T09:09:12.758Z,60254.61
2018-07-07T09:11:40.967Z,60246.48
2018-07-07T09:14:09.257Z,60229.20
2018-07-07T09:16:37.417Z,60264.77
2018-07-07T09:19:05.614Z,60269.85
2018-07-07T09:21:33.883Z,60260.71
2018-07-07T09:24:02.127Z,60227.17
2018-07-07T09:26:30.394Z,60233.27
2018-07-07T09:28:58.622Z,60229.20
2018-07-07T09:31:27.035Z,60236.32
2018-07-07T09:33:55.414Z,60241.40
2018-07-07T09:36:23.737Z,60239.36
2018-07-07T09:38:52.021Z,60234.29
2018-07-07T09:41:20.235Z,60234.29
2018-07-07T09:43:48.510Z,60238.35
2018-07-07T09:46:16.742Z,60217.01
2018-07-07T09:48:45.016Z,60233.27
2018-07-07T09:51:13.364Z,60204.82
2018-07-07T09:53:41.635Z,60208.88
2018-07-07T09:56:09.884Z,60195.67
2018-07-07T09:58:38.148Z,60198.72
2018-07-07T10:01:06.384Z,60188.56
2018-07-07T10:03:34.685Z,60197.70
2018-07-07T10:06:02.935Z,60186.52
2018-07-07T10:08:31.147Z,60191.61
2018-07-07T10:10:59.380Z,60213.96
2018-07-07T10:13:27.618Z,60178.40
2018-07-07T10:15:55.794Z,60182.46
2018-07-07T10:18:24.054Z,60165.19
2018-07-07T10:20:52.239Z,60183.48
2018-07-07T10:23:20.526Z,60166.20
2018-07-07T10:25:48.761Z,60172.30
2018-07-07T10:28:16.955Z,60170.27
2018-07-07T10:30:45.246Z,60179.41
2018-07-07T10:33:13.426Z,60166.20
2018-07-07T10:35:41.619Z,60133.69
2018-07-07T10:38:09.838Z,60137.75
2018-07-07T10:40:38.084Z,60150.96
2018-07-07T10:43:06.415Z,60156.04
2018-07-07T10:45:34.676Z,60149.95
2018-07-07T10:48:02.894Z,60149.95
2018-07-07T10:50:31.135Z,60128.61
2018-07-07T10:52:59.440Z,60149.95
2018-07-07T10:55:27.668Z,60149.95
2018-07-07T10:57:55.794Z,60145.88
2018-07-07T11:00:23.999Z,60135.72
2018-07-07T11:02:52.216Z,60124.54
2018-07-07T11:05:20.418Z,60118.45
2018-07-07T11:07:48.611Z,60128.61
2018-07-07T11:10:16.863Z,60148.93
2018-07-07T11:12:45.059Z,60116.41
2018-07-07T11:15:13.267Z,60135.72
2018-07-07T11:17:41.434Z,60123.53
2018-07-07T11:20:09.619Z,60116.41
2018-07-07T11:22:37.786Z,60122.51
2018-07-07T11:25:06.075Z,60126.57
2018-07-07T11:27:34.296Z,60135.72
2018-07-07T11:30:02.499Z,60131.66
2018-07-07T11:32:30.675Z,60144.87
2018-07-07T11:34:58.875Z,60114.38
2018-07-07T11:37:27.091Z,60136.73
2018-07-07T11:39:55.319Z,60126.57
2018-07-07T11:42:23.584Z,60123.53
2018-07-07T11:44:51.972Z,60123.53
2018-07-07T11:47:20.243Z,60120.48
2018-07-07T11:49:48.472Z,60118.45
2018-07-07T11:52:16.846Z,60110.32
2018-07-07T11:54:45.208Z,60137.75
2018-07-07T11:57:13.547Z,60156.04
2018-07-07T11:59:41.840Z,60141.82
2018-07-07T12:02:10.107Z,60137.75
2018-07-07T12:04:38.471Z,60144.87
2018-07-07T12:07:06.771Z,60130.64
2018-07-07T12:09:35.027Z,60123.53
2018-07-07T12:12:03.239Z,60134.70
2018-07-07T12:14:31.411Z,60119.46
2018-07-07T12:16:59.583Z,60140.80
2018-07-07T12:19:27.970Z,60134.70
2018-07-07T12:21:56.167Z,60123.53
2018-07-07T12:24:24.407Z,60129.63
2018-07-07T12:26:52.551Z,60122.51
2018-07-07T12:29:21.131Z,60139.79
2018-07-07T12:33:13.828Z,60156.04
2018-07-07T12:35:42.059Z,60144.87
2018-07-07T12:38:10.239Z,60140.80
2018-07-07T12:40:39.045Z,60139.79
2018-07-07T12:44:11.507Z,60159.09
2018-07-07T12:46:39.992Z,60160.11
2018-07-07T12:49:08.554Z,60118.45
2018-07-07T12:51:36.735Z,60118.45
2018-07-07T12:54:05.146Z,60121.50
2018-07-07T12:56:33.357Z,60136.73
2018-07-07T12:59:01.540Z,60141.82
2018-07-07T13:01:29.755Z,60143.85
2018-07-07T13:03:57.935Z,60139.79
2018-07-07T13:06:26.106Z,60137.75
2018-07-07T13:08:54.293Z,60123.53
2018-07-07T13:11:22.798Z,60154.01
2018-07-07T13:13:50.985Z,60127.59
2018-07-07T13:16:19.146Z,60146.90
2018-07-07T13:18:47.327Z,60140.80
2018-07-07T13:21:15.505Z,60144.87
2018-07-07T13:23:43.708Z,60134.70
2018-07-07T13:26:11.911Z,60139.79
2018-07-07T13:28:40.095Z,60131.66
2018-07-07T13:31:08.271Z,60135.72
2018-07-07T13:33:36.487Z,60146.90
2018-07-07T13:36:04.692Z,60136.73
2018-07-07T13:38:36.322Z,60115.40
2018-07-07T13:41:05.503Z,60115.40
2018-07-07T13:43:33.674Z,60137.75
2018-07-07T13:46:01.854Z,60123.53
2018-07-07T13:48:30.028Z,60143.85
2018-07-07T13:50:58.532Z,60126.57
2018-07-07T13:53:27.046Z,60128.61
2018-07-07T13:55:55.218Z,60127.59
2018-07-07T13:58:23.390Z,60133.69
2018-07-07T14:00:51.589Z,60128.61
2018-07-07T14:03:19.914Z,60146.90
2018-07-07T14:05:48.150Z,60126.57
2018-07-07T14:08:17.038Z,60172.30
2018-07-07T14:10:45.287Z,60163.16
2018-07-07T14:13:13.498Z,60144.87
2018-07-07T14:15:41.787Z,60143.85
2018-07-07T14:18:10.028Z,60144.87
2018-07-07T14:20:38.238Z,60144.87
2018-07-07T14:23:06.470Z,60147.91
2018-07-07T14:25:34.775Z,60161.12
2018-07-07T14:28:03.059Z,60143.85
2018-07-07T14:30:31.315Z,60164.17
2018-07-07T14:32:59.596Z,60159.09
2018-07-07T14:35:27.890Z,60154.01
2018-07-07T14:37:56.213Z,60150.96
2018-07-07T14:40:24.721Z,60148.93
2018-07-07T14:42:54.194Z,60145.88
2018-07-07T14:45:30.128Z,60172.30
2018-07-07T14:47:59.685Z,60160.11
2018-07-07T14:50:28.275Z,60160.11
2018-07-07T14:52:56.450Z,60153.00
2018-07-07T14:55:27.130Z,60172.30
2018-07-07T14:57:56.139Z,60178.40
2018-07-07T15:00:26.149Z,60163.16
2018-07-07T15:02:56.661Z,60147.91
2018-07-07T15:05:24.887Z,60169.25
2018-07-07T15:07:53.908Z,60164.17
2018-07-07T15:10:22.091Z,60176.37
2018-07-07T15:12:50.621Z,60156.04
2018-07-07T15:15:18.802Z,60194.66
2018-07-07T15:17:47.960Z,60163.16
2018-07-07T15:20:16.135Z,60151.98
2018-07-07T15:22:44.491Z,60176.37
2018-07-07T15:25:12.502Z,60178.40
2018-07-07T15:27:40.699Z,60173.32
2018-07-07T15:30:09.555Z,60172.30
2018-07-07T15:32:38.071Z,60169.25
2018-07-07T15:35:06.243Z,60166.20
2018-07-07T15:37:34.442Z,60164.17
2018-07-07T15:40:02.675Z,60170.27
2018-07-07T15:42:30.824Z,60171.29
2018-07-07T15:44:58.994Z,60168.23
2018-07-07T16:31:22.506Z,60163.16
2018-07-07T16:33:50.707Z,60167.22
2018-07-07T16:36:18.955Z,60188.56
2018-07-07T16:38:47.187Z,60180.43
2018-07-07T16:41:15.386Z,60167.22
2018-07-07T16:43:43.583Z,60164.17
2018-07-07T16:46:11.864Z,60189.57
2018-07-07T16:48:39.975Z,60167.22
2018-07-07T17:03:23.386Z,60171.29
2018-07-07T17:05:51.595Z,60166.20
2018-07-07T17:08:19.887Z,60174.33
2018-07-07T17:10:48.083Z,60162.14
2018-07-07T17:13:16.266Z,60167.22
2018-07-07T17:23:22.290Z,60163.16
2018-07-07T17:25:51.198Z,60182.46
2018-07-07T17:28:19.511Z,60190.59
2018-07-07T17:30:48.595Z,60166.20
2018-07-07T17:33:16.919Z,60187.54
2018-07-07T17:35:45.416Z,60165.19
2018-07-07T17:38:13.598Z,60184.49
2018-07-07T17:40:41.845Z,60176.37
2018-07-07T17:43:10.119Z,60177.38
2018-07-07T17:45:38.626Z,60186.52
2018-07-07T17:48:06.879Z,60202.79
2018-07-07T17:50:35.075Z,60153.00
2018-07-07T17:53:03.294Z,60181.45
2018-07-07T17:55:31.462Z,60191.61
2018-07-07T17:57:59.815Z,60176.37
2018-07-07T18:00:28.263Z,60174.33
2018-07-07T18:02:56.474Z,60153.00
2018-07-07T18:05:24.847Z,60169.25
2018-07-07T18:07:53.066Z,60183.48
2018-07-07T18:10:21.251Z,60163.16
2018-07-07T18:12:49.434Z,60190.59
2018-07-07T18:15:17.727Z,60181.45
2018-07-07T18:17:45.963Z,60174.33
2018-07-07T18:20:14.213Z,60185.51
2018-07-07T18:22:42.371Z,60177.38
2018-07-07T18:25:10.595Z,60177.38
2018-07-07T18:27:38.890Z,60207.86
2018-07-07T18:30:07.135Z,60191.61
2018-07-07T18:32:35.291Z,60212.95
2018-07-07T18:35:03.500Z,60189.57
2018-07-07T18:37:31.913Z,60181.45
2018-07-07T18:40:00.026Z,60218.03
2018-07-07T18:42:28.210Z,60200.75
2018-07-07T18:44:56.422Z,60205.83
2018-07-07T18:47:24.582Z,60220.06
2018-07-07T18:49:52.762Z,60222.09
2018-07-07T18:52:20.935Z,60210.91
2018-07-07T18:54:49.114Z,60202.79
2018-07-07T18:57:17.288Z,60198.72
2018-07-07T18:59:45.474Z,60205.83
2018-07-07T19:02:13.747Z,60209.90
2018-07-07T19:04:42.015Z,60226.16
2018-07-07T19:07:10.219Z,60223.11
2018-07-07T19:09:38.576Z,60206.85
2018-07-07T19:12:07.171Z,60211.93
2018-07-07T19:14:35.434Z,60211.93
2018-07-07T19:17:03.695Z,60214.98
2018-07-07T19:19:31.859Z,60222.09
2018-07-07T19:22:05.362Z,60218.03
2018-07-07T19:24:38.722Z,60200.75
2018-07-07T19:27:07.610Z,60220.06
2018-07-07T19:29:35.786Z,60226.16
2018-07-07T19:32:09.294Z,60203.80
2018-07-07T19:34:42.698Z,60209.90
2018-07-07T19:37:14.982Z,60235.30
2018-07-07T19:39:43.870Z,60225.14
2018-07-07T19:42:12.034Z,60202.79
2018-07-07T19:44:40.370Z,60208.88
2018-07-07T19:47:08.944Z,60242.41
2018-07-07T19:49:38.483Z,60233.27
2018-07-07T19:52:07.438Z,60234.29
2018-07-07T19:54:35.638Z,60222.09
2018-07-07T19:57:03.843Z,60225.14
2018-07-07T19:59:32.441Z,60244.45
2018-07-07T20:02:00.615Z,60228.19
2018-07-07T20:04:28.800Z,60233.27
2018-07-07T20:06:56.967Z,60247.49
2018-07-07T20:09:25.127Z,60253.59
2018-07-07T20:11:53.298Z,60246.48
2018-07-07T20:14:24.196Z,60249.53
2018-07-07T20:17:10.342Z,60249.53
2018-07-07T20:19:55.188Z,60251.56
2018-07-07T20:22:23.367Z,60230.22
2018-07-07T20:24:51.522Z,60242.41
2018-07-07T20:27:24.949Z,60230.22
2018-07-07T20:29:53.118Z,60242.41
2018-07-07T20:32:26.699Z,60236.32
2018-07-07T20:34:54.862Z,60247.49
2018-07-07T20:37:23.234Z,60247.49
2018-07-07T20:39:51.387Z,60246.48
2018-07-07T20:42:19.565Z,60245.46
2018-07-07T20:44:47.736Z,60240.38
2018-07-07T20:47:15.902Z,60261.72
2018-07-07T20:49:44.086Z,60263.75
2018-07-07T20:52:12.307Z,60258.67
2018-07-07T20:54:40.490Z,60235.30
2018-07-07T20:57:08.658Z,60250.54
2018-07-07T20:59:36.830Z,60266.80
2018-07-07T21:02:05.083Z,60267.82
2018-07-07T21:04:33.186Z,60246.48
2018-07-07T21:07:01.364Z,60254.61
2018-07-07T21:09:29.534Z,60268.83
2018-07-07T21:11:57.718Z,60262.74
2018-07-07T21:14:25.911Z,60264.77
2018-07-07T21:16:54.098Z,60273.91
2018-07-07T21:19:22.274Z,60261.72
2018-07-07T21:21:50.482Z,60265.79
2018-07-07T21:24:18.610Z,60252.57
2018-07-07T21:26:46.789Z,60300.34
2018-07-07T21:29:14.963Z,60280.01
2018-07-07T21:31:43.171Z,60270.87
2018-07-07T21:34:11.346Z,60257.66
2018-07-07T21:36:39.503Z,60263.75
2018-07-07T21:39:07.688Z,60266.80
2018-07-07T21:41:35.854Z,60286.11
2018-07-07T21:44:04.043Z,60274.93
2018-07-07T21:46:32.202Z,60292.21
2018-07-07T21:49:00.422Z,60275.95
2018-07-07T21:51:28.598Z,60269.85
2018-07-07T21:53:56.862Z,60287.12
2018-07-07T21:56:24.980Z,60281.03
2018-07-07T21:58:58.443Z,60268.83
2018-07-07T22:01:59.508Z,60278.99
2018-07-07T22:04:33.806Z,60263.75
2018-07-07T22:07:08.310Z,60277.98
2018-07-07T22:09:37.135Z,60274.93
2018-07-07T22:12:05.346Z,60283.06
2018-07-07T22:14:33.688Z,60298.30
2018-07-07T22:17:01.892Z,60273.91
2018-07-07T22:19:30.056Z,60261.72
2018-07-07T22:22:08.271Z,60295.25
2018-07-07T22:24:36.720Z,60276.96
2018-07-07T22:27:06.027Z,60280.01
2018-07-07T22:29:34.215Z,60288.14
2018-07-07T22:32:04.725Z,60289.16
2018-07-07T22:34:34.126Z,60282.04
2018-07-07T22:37:02.306Z,60300.34
2018-07-07T22:39:33.854Z,60292.21
2018-07-07T22:42:03.270Z,60284.07
2018-07-07T22:44:32.147Z,60287.12
2018-07-07T22:47:00.422Z,60310.50
2018-07-07T22:49:29.218Z,60307.45
2018-07-07T22:51:57.406Z,60293.22
2018-07-07T22:54:25.658Z,60288.14
2018-07-07T22:56:53.843Z,60289.16
2018-07-07T22:59:22.026Z,60303.38
2018-07-07T23:01:50.190Z,60294.24
2018-07-07T23:04:18.372Z,60304.40
2018-07-07T23:06:46.949Z,60289.16
2018-07-07T23:09:16.347Z,60296.27
2018-07-07T23:11:44.542Z,60296.27
2018-07-07T23:14:12.711Z,60308.46
2018-07-07T23:16:40.903Z,60295.25
2018-07-07T23:19:09.255Z,60312.53
2018-07-07T23:21:37.451Z,60293.22
2018-07-07T23:24:05.925Z,60313.54
2018-07-07T23:26:34.097Z,60306.43
2018-07-07T23:29:03.070Z,60299.32
2018-07-07T23:31:31.304Z,60309.48
2018-07-07T23:33:59.533Z,60323.71
2018-07-07T23:36:28.011Z,60298.30
2018-07-07T23:38:56.194Z,60290.17
2018-07-07T23:41:24.371Z,60289.16
2018-07-07T23:43:52.690Z,60292.21
2018-07-07T23:46:20.847Z,60296.27
2018-07-07T23:48:49.023Z,60315.57
2018-07-07T23:51:17.319Z,60288.14
2018-07-07T23:53:45.514Z,60317.61
2018-07-07T23:56:13.683Z,60323.71
2018-07-07T23:58:41.867Z,60308.46
